sensor_id;sensor_type;location;lat;lon;timestamp;P1;durP1;ratioP1;P2;durP2;ratioP2
75718;SDS011;64340;48.534;-3.036;2022-10-31T00:02:05;5.75;;;1.90;;
75718;SDS011;64340;48.534;-3.036;2022-10-31T00:04:31;6.82;;;1.80;;
75718;SDS011;64340;48.534;-3.036;2022-10-31T00:06:57;4.00;;;1.52;;
75718;SDS011;64340;48.534;-3.036;2022-10-31T00:09:23;6.25;;;1.90;;
75718;SDS011;64340;48.534;-3.036;2022-10-31T00:11:48;6.13;;;1.70;;
75718;SDS011;64340;48.534;-3.036;2022-10-31T00:14:14;5.13;;;1.50;;
75718;SDS011;64340;48.534;-3.036;2022-10-31T00:16:40;3.83;;;1.40;;
75718;SDS011;64340;48.534;-3.036;2022-10-31T00:19:06;5.28;;;1.50;;
75718;SDS011;64340;48.534;-3.036;2022-10-31T00:21:33;4.20;;;1.40;;
75718;SDS011;64340;48.534;-3.036;2022-10-31T00:24:00;4.53;;;1.70;;
75718;SDS011;64340;48.534;-3.036;2022-10-31T00:26:27;5.03;;;1.80;;
75718;SDS011;64340;48.534;-3.036;2022-10-31T00:28:53;5.38;;;1.73;;
75718;SDS011;64340;48.534;-3.036;2022-10-31T00:31:19;4.40;;;1.60;;
75718;SDS011;64340;48.534;-3.036;2022-10-31T00:33:45;4.40;;;1.38;;
75718;SDS011;64340;48.534;-3.036;2022-10-31T00:36:12;4.95;;;1.77;;
75718;SDS011;64340;48.534;-3.036;2022-10-31T00:38:40;4.53;;;1.45;;
75718;SDS011;64340;48.534;-3.036;2022-10-31T00:41:06;5.60;;;1.50;;
75718;SDS011;64340;48.534;-3.036;2022-10-31T00:43:32;4.95;;;1.48;;
75718;SDS011;64340;48.534;-3.036;2022-10-31T00:45:58;5.55;;;1.83;;
75718;SDS011;64340;48.534;-3.036;2022-10-31T00:48:24;5.97;;;1.83;;
75718;SDS011;64340;48.534;-3.036;2022-10-31T00:50:50;4.13;;;1.50;;
75718;SDS011;64340;48.534;-3.036;2022-10-31T00:53:15;3.92;;;1.40;;
75718;SDS011;64340;48.534;-3.036;2022-10-31T00:55:41;5.22;;;1.55;;
75718;SDS011;64340;48.534;-3.036;2022-10-31T00:58:07;5.38;;;1.60;;
75718;SDS011;64340;48.534;-3.036;2022-10-31T01:00:33;4.75;;;1.50;;
75718;SDS011;64340;48.534;-3.036;2022-10-31T01:02:59;2.55;;;1.40;;
75718;SDS011;64340;48.534;-3.036;2022-10-31T01:05:24;3.80;;;1.40;;
75718;SDS011;64340;48.534;-3.036;2022-10-31T01:07:50;4.85;;;1.58;;
75718;SDS011;64340;48.534;-3.036;2022-10-31T01:10:16;3.92;;;1.65;;
75718;SDS011;64340;48.534;-3.036;2022-10-31T01:12:46;4.85;;;1.40;;
75718;SDS011;64340;48.534;-3.036;2022-10-31T01:15:15;4.00;;;1.40;;
75718;SDS011;64340;48.534;-3.036;2022-10-31T01:17:47;3.30;;;1.25;;
75718;SDS011;64340;48.534;-3.036;2022-10-31T01:20:14;4.53;;;1.33;;
75718;SDS011;64340;48.534;-3.036;2022-10-31T01:22:40;3.42;;;1.25;;
75718;SDS011;64340;48.534;-3.036;2022-10-31T01:25:06;4.13;;;1.55;;
75718;SDS011;64340;48.534;-3.036;2022-10-31T01:27:33;4.25;;;1.23;;
75718;SDS011;64340;48.534;-3.036;2022-10-31T01:30:00;3.65;;;1.40;;
75718;SDS011;64340;48.534;-3.036;2022-10-31T01:32:26;5.60;;;1.70;;
75718;SDS011;64340;48.534;-3.036;2022-10-31T01:34:53;3.83;;;1.25;;
75718;SDS011;64340;48.534;-3.036;2022-10-31T01:37:20;4.93;;;1.33;;
75718;SDS011;64340;48.534;-3.036;2022-10-31T01:39:47;3.90;;;1.20;;
75718;SDS011;64340;48.534;-3.036;2022-10-31T01:42:18;3.67;;;1.13;;
75718;SDS011;64340;48.534;-3.036;2022-10-31T01:47:19;4.38;;;1.17;;
75718;SDS011;64340;48.534;-3.036;2022-10-31T01:49:53;3.22;;;1.20;;
75718;SDS011;64340;48.534;-3.036;2022-10-31T01:55:50;3.30;;;1.13;;
75718;SDS011;64340;48.534;-3.036;2022-10-31T01:58:13;5.47;;;1.20;;
75718;SDS011;64340;48.534;-3.036;2022-10-31T02:00:45;2.17;;;0.93;;
75718;SDS011;64340;48.534;-3.036;2022-10-31T02:03:15;5.00;;;1.42;;
75718;SDS011;64340;48.534;-3.036;2022-10-31T02:05:41;3.05;;;1.15;;
75718;SDS011;64340;48.534;-3.036;2022-10-31T02:08:27;4.50;;;1.30;;
75718;SDS011;64340;48.534;-3.036;2022-10-31T02:10:55;2.25;;;1.10;;
75718;SDS011;64340;48.534;-3.036;2022-10-31T02:13:22;2.95;;;1.40;;
75718;SDS011;64340;48.534;-3.036;2022-10-31T02:15:51;2.97;;;1.55;;
75718;SDS011;64340;48.534;-3.036;2022-10-31T02:18:20;2.67;;;1.00;;
75718;SDS011;64340;48.534;-3.036;2022-10-31T02:31:45;4.63;;;1.58;;
75718;SDS011;64340;48.534;-3.036;2022-10-31T02:36:56;4.18;;;1.13;;
75718;SDS011;64340;48.534;-3.036;2022-10-31T02:39:26;4.05;;;1.20;;
75718;SDS011;64340;48.534;-3.036;2022-10-31T02:42:08;2.95;;;1.00;;
75718;SDS011;64340;48.534;-3.036;2022-10-31T02:44:45;5.32;;;1.23;;
75718;SDS011;64340;48.534;-3.036;2022-10-31T02:47:19;3.08;;;1.08;;
75718;SDS011;64340;48.534;-3.036;2022-10-31T02:52:40;2.60;;;0.90;;
75718;SDS011;64340;48.534;-3.036;2022-10-31T03:00:39;2.33;;;0.98;;
75718;SDS011;64340;48.534;-3.036;2022-10-31T03:03:33;4.05;;;0.95;;
75718;SDS011;64340;48.534;-3.036;2022-10-31T03:09:26;3.72;;;0.90;;
75718;SDS011;64340;48.534;-3.036;2022-10-31T03:12:03;2.70;;;0.90;;
75718;SDS011;64340;48.534;-3.036;2022-10-31T03:17:07;2.53;;;0.80;;
75718;SDS011;64340;48.534;-3.036;2022-10-31T03:19:42;1.80;;;0.90;;
75718;SDS011;64340;48.534;-3.036;2022-10-31T03:22:22;3.25;;;0.90;;
75718;SDS011;64340;48.534;-3.036;2022-10-31T03:24:51;3.00;;;1.20;;
75718;SDS011;64340;48.534;-3.036;2022-10-31T03:27:23;4.20;;;1.17;;
75718;SDS011;64340;48.534;-3.036;2022-10-31T03:29:52;2.55;;;0.90;;
75718;SDS011;64340;48.534;-3.036;2022-10-31T03:37:34;2.40;;;0.95;;
75718;SDS011;64340;48.534;-3.036;2022-10-31T03:40:02;3.05;;;0.80;;
75718;SDS011;64340;48.534;-3.036;2022-10-31T03:42:31;4.70;;;1.15;;
75718;SDS011;64340;48.534;-3.036;2022-10-31T03:45:07;3.92;;;1.23;;
75718;SDS011;64340;48.534;-3.036;2022-10-31T03:47:38;4.18;;;1.02;;
75718;SDS011;64340;48.534;-3.036;2022-10-31T03:50:05;4.85;;;0.98;;
75718;SDS011;64340;48.534;-3.036;2022-10-31T03:52:47;2.38;;;0.80;;
75718;SDS011;64340;48.534;-3.036;2022-10-31T03:56:00;2.78;;;1.00;;
75718;SDS011;64340;48.534;-3.036;2022-10-31T03:58:33;1.83;;;0.88;;
75718;SDS011;64340;48.534;-3.036;2022-10-31T04:01:05;3.25;;;0.90;;
75718;SDS011;64340;48.534;-3.036;2022-10-31T04:03:34;2.58;;;0.80;;
75718;SDS011;64340;48.534;-3.036;2022-10-31T04:06:03;2.70;;;0.70;;
75718;SDS011;64340;48.534;-3.036;2022-10-31T04:08:36;2.25;;;0.80;;
75718;SDS011;64340;48.534;-3.036;2022-10-31T04:11:05;2.08;;;0.90;;
75718;SDS011;64340;48.534;-3.036;2022-10-31T04:13:34;1.77;;;0.70;;
75718;SDS011;64340;48.534;-3.036;2022-10-31T04:16:03;1.58;;;0.77;;
75718;SDS011;64340;48.534;-3.036;2022-10-31T04:18:30;3.38;;;0.98;;
75718;SDS011;64340;48.534;-3.036;2022-10-31T04:21:03;2.30;;;0.82;;
75718;SDS011;64340;48.534;-3.036;2022-10-31T04:23:30;2.95;;;0.88;;
75718;SDS011;64340;48.534;-3.036;2022-10-31T04:25:56;2.30;;;0.98;;
75718;SDS011;64340;48.534;-3.036;2022-10-31T04:28:22;2.80;;;0.82;;
75718;SDS011;64340;48.534;-3.036;2022-10-31T04:30:48;4.10;;;1.17;;
75718;SDS011;64340;48.534;-3.036;2022-10-31T04:33:14;3.45;;;0.90;;
75718;SDS011;64340;48.534;-3.036;2022-10-31T04:35:40;1.77;;;0.73;;
75718;SDS011;64340;48.534;-3.036;2022-10-31T04:38:06;3.53;;;0.90;;
75718;SDS011;64340;48.534;-3.036;2022-10-31T04:40:32;2.88;;;0.80;;
75718;SDS011;64340;48.534;-3.036;2022-10-31T04:42:57;2.50;;;0.88;;
75718;SDS011;64340;48.534;-3.036;2022-10-31T04:45:23;3.03;;;0.90;;
75718;SDS011;64340;48.534;-3.036;2022-10-31T04:47:49;4.05;;;0.98;;
75718;SDS011;64340;48.534;-3.036;2022-10-31T04:50:15;2.72;;;0.82;;
75718;SDS011;64340;48.534;-3.036;2022-10-31T04:52:41;1.63;;;0.77;;
75718;SDS011;64340;48.534;-3.036;2022-10-31T04:55:09;2.67;;;0.70;;
75718;SDS011;64340;48.534;-3.036;2022-10-31T04:57:45;3.28;;;1.00;;
75718;SDS011;64340;48.534;-3.036;2022-10-31T05:00:13;2.83;;;0.95;;
75718;SDS011;64340;48.534;-3.036;2022-10-31T05:05:14;2.22;;;0.90;;
75718;SDS011;64340;48.534;-3.036;2022-10-31T05:07:40;3.10;;;1.00;;
75718;SDS011;64340;48.534;-3.036;2022-10-31T05:10:08;1.92;;;0.70;;
75718;SDS011;64340;48.534;-3.036;2022-10-31T05:12:36;2.20;;;0.63;;
75718;SDS011;64340;48.534;-3.036;2022-10-31T05:15:02;3.20;;;0.80;;
75718;SDS011;64340;48.534;-3.036;2022-10-31T05:17:30;3.25;;;0.95;;
75718;SDS011;64340;48.534;-3.036;2022-10-31T05:19:57;1.83;;;0.85;;
75718;SDS011;64340;48.534;-3.036;2022-10-31T05:22:22;1.80;;;0.70;;
75718;SDS011;64340;48.534;-3.036;2022-10-31T05:24:48;2.35;;;0.57;;
75718;SDS011;64340;48.534;-3.036;2022-10-31T05:27:14;1.55;;;0.70;;
75718;SDS011;64340;48.534;-3.036;2022-10-31T05:29:39;3.05;;;0.80;;
75718;SDS011;64340;48.534;-3.036;2022-10-31T05:32:05;3.42;;;0.82;;
75718;SDS011;64340;48.534;-3.036;2022-10-31T05:34:31;2.03;;;0.90;;
75718;SDS011;64340;48.534;-3.036;2022-10-31T05:36:57;3.20;;;0.90;;
75718;SDS011;64340;48.534;-3.036;2022-10-31T05:39:22;2.80;;;0.63;;
75718;SDS011;64340;48.534;-3.036;2022-10-31T05:41:48;1.52;;;0.65;;
75718;SDS011;64340;48.534;-3.036;2022-10-31T05:44:14;1.30;;;0.57;;
75718;SDS011;64340;48.534;-3.036;2022-10-31T05:46:41;1.33;;;0.52;;
75718;SDS011;64340;48.534;-3.036;2022-10-31T05:49:07;2.28;;;0.60;;
75718;SDS011;64340;48.534;-3.036;2022-10-31T05:51:32;2.20;;;0.77;;
75718;SDS011;64340;48.534;-3.036;2022-10-31T05:53:58;2.30;;;0.63;;
75718;SDS011;64340;48.534;-3.036;2022-10-31T05:56:24;2.00;;;0.70;;
75718;SDS011;64340;48.534;-3.036;2022-10-31T05:58:50;1.67;;;0.75;;
75718;SDS011;64340;48.534;-3.036;2022-10-31T06:01:15;2.50;;;0.80;;
75718;SDS011;64340;48.534;-3.036;2022-10-31T06:03:41;2.60;;;0.68;;
75718;SDS011;64340;48.534;-3.036;2022-10-31T06:06:07;2.17;;;0.70;;
75718;SDS011;64340;48.534;-3.036;2022-10-31T06:08:36;2.70;;;0.73;;
75718;SDS011;64340;48.534;-3.036;2022-10-31T06:11:02;1.77;;;0.60;;
75718;SDS011;64340;48.534;-3.036;2022-10-31T06:13:27;2.30;;;0.70;;
75718;SDS011;64340;48.534;-3.036;2022-10-31T06:15:53;2.53;;;0.50;;
75718;SDS011;64340;48.534;-3.036;2022-10-31T06:18:19;2.88;;;0.77;;
75718;SDS011;64340;48.534;-3.036;2022-10-31T06:20:44;1.88;;;0.60;;
75718;SDS011;64340;48.534;-3.036;2022-10-31T06:23:10;3.15;;;0.63;;
75718;SDS011;64340;48.534;-3.036;2022-10-31T06:25:36;1.55;;;0.60;;
75718;SDS011;64340;48.534;-3.036;2022-10-31T06:28:02;2.30;;;0.70;;
75718;SDS011;64340;48.534;-3.036;2022-10-31T06:30:28;2.38;;;0.70;;
75718;SDS011;64340;48.534;-3.036;2022-10-31T06:32:53;2.67;;;0.60;;
75718;SDS011;64340;48.534;-3.036;2022-10-31T06:35:19;3.00;;;0.85;;
75718;SDS011;64340;48.534;-3.036;2022-10-31T06:37:52;1.15;;;0.50;;
75718;SDS011;64340;48.534;-3.036;2022-10-31T06:40:18;1.52;;;0.60;;
75718;SDS011;64340;48.534;-3.036;2022-10-31T06:42:44;3.05;;;0.60;;
75718;SDS011;64340;48.534;-3.036;2022-10-31T06:45:10;2.83;;;0.80;;
75718;SDS011;64340;48.534;-3.036;2022-10-31T06:47:36;2.13;;;0.90;;
75718;SDS011;64340;48.534;-3.036;2022-10-31T06:50:02;2.28;;;0.73;;
75718;SDS011;64340;48.534;-3.036;2022-10-31T06:52:27;3.60;;;0.80;;
75718;SDS011;64340;48.534;-3.036;2022-10-31T06:54:53;2.30;;;0.90;;
75718;SDS011;64340;48.534;-3.036;2022-10-31T06:57:19;3.17;;;1.35;;
75718;SDS011;64340;48.534;-3.036;2022-10-31T06:59:45;2.95;;;1.00;;
75718;SDS011;64340;48.534;-3.036;2022-10-31T07:02:11;2.13;;;0.85;;
75718;SDS011;64340;48.534;-3.036;2022-10-31T07:04:37;2.50;;;1.10;;
75718;SDS011;64340;48.534;-3.036;2022-10-31T07:07:02;3.35;;;1.30;;
75718;SDS011;64340;48.534;-3.036;2022-10-31T07:09:28;2.03;;;1.00;;
75718;SDS011;64340;48.534;-3.036;2022-10-31T07:11:54;2.72;;;1.00;;
75718;SDS011;64340;48.534;-3.036;2022-10-31T07:14:20;3.00;;;1.02;;
75718;SDS011;64340;48.534;-3.036;2022-10-31T07:16:49;3.80;;;1.35;;
75718;SDS011;64340;48.534;-3.036;2022-10-31T07:19:16;3.70;;;1.17;;
75718;SDS011;64340;48.534;-3.036;2022-10-31T07:21:42;2.50;;;0.80;;
75718;SDS011;64340;48.534;-3.036;2022-10-31T07:24:08;2.50;;;0.90;;
75718;SDS011;64340;48.534;-3.036;2022-10-31T07:26:34;2.00;;;0.90;;
75718;SDS011;64340;48.534;-3.036;2022-10-31T07:29:00;4.07;;;1.08;;
75718;SDS011;64340;48.534;-3.036;2022-10-31T07:31:25;3.92;;;1.02;;
75718;SDS011;64340;48.534;-3.036;2022-10-31T07:33:52;3.70;;;0.93;;
75718;SDS011;64340;48.534;-3.036;2022-10-31T07:36:18;3.10;;;0.85;;
75718;SDS011;64340;48.534;-3.036;2022-10-31T07:38:43;3.08;;;0.88;;
75718;SDS011;64340;48.534;-3.036;2022-10-31T07:41:09;2.47;;;1.00;;
75718;SDS011;64340;48.534;-3.036;2022-10-31T07:43:35;2.75;;;1.10;;
75718;SDS011;64340;48.534;-3.036;2022-10-31T07:46:01;2.45;;;1.08;;
75718;SDS011;64340;48.534;-3.036;2022-10-31T07:48:27;1.50;;;0.85;;
75718;SDS011;64340;48.534;-3.036;2022-10-31T07:50:54;3.33;;;1.08;;
75718;SDS011;64340;48.534;-3.036;2022-10-31T07:53:20;2.15;;;0.80;;
75718;SDS011;64340;48.534;-3.036;2022-10-31T07:55:46;3.42;;;1.00;;
75718;SDS011;64340;48.534;-3.036;2022-10-31T07:58:12;3.15;;;1.00;;
75718;SDS011;64340;48.534;-3.036;2022-10-31T08:00:40;1.98;;;0.70;;
75718;SDS011;64340;48.534;-3.036;2022-10-31T08:03:09;3.33;;;0.75;;
75718;SDS011;64340;48.534;-3.036;2022-10-31T08:05:36;1.60;;;0.90;;
75718;SDS011;64340;48.534;-3.036;2022-10-31T08:08:03;2.22;;;1.00;;
75718;SDS011;64340;48.534;-3.036;2022-10-31T08:10:30;2.17;;;0.90;;
75718;SDS011;64340;48.534;-3.036;2022-10-31T08:13:03;2.60;;;1.00;;
75718;SDS011;64340;48.534;-3.036;2022-10-31T08:17:59;1.80;;;0.80;;
75718;SDS011;64340;48.534;-3.036;2022-10-31T08:20:25;1.73;;;0.68;;
75718;SDS011;64340;48.534;-3.036;2022-10-31T08:22:54;1.80;;;0.90;;
75718;SDS011;64340;48.534;-3.036;2022-10-31T08:25:25;2.50;;;0.93;;
75718;SDS011;64340;48.534;-3.036;2022-10-31T08:27:54;3.08;;;0.90;;
75718;SDS011;64340;48.534;-3.036;2022-10-31T08:30:21;3.22;;;1.00;;
75718;SDS011;64340;48.534;-3.036;2022-10-31T08:32:56;2.85;;;1.20;;
75718;SDS011;64340;48.534;-3.036;2022-10-31T08:35:35;3.47;;;1.30;;
75718;SDS011;64340;48.534;-3.036;2022-10-31T08:38:00;3.75;;;1.40;;
75718;SDS011;64340;48.534;-3.036;2022-10-31T08:40:27;2.88;;;1.38;;
75718;SDS011;64340;48.534;-3.036;2022-10-31T08:42:58;5.28;;;3.33;;
75718;SDS011;64340;48.534;-3.036;2022-10-31T08:45:26;7.75;;;5.38;;
75718;SDS011;64340;48.534;-3.036;2022-10-31T08:47:52;5.20;;;3.97;;
75718;SDS011;64340;48.534;-3.036;2022-10-31T08:50:22;5.88;;;4.10;;
75718;SDS011;64340;48.534;-3.036;2022-10-31T08:52:48;5.05;;;3.20;;
75718;SDS011;64340;48.534;-3.036;2022-10-31T08:55:14;4.82;;;3.40;;
75718;SDS011;64340;48.534;-3.036;2022-10-31T08:57:41;4.35;;;3.45;;
75718;SDS011;64340;48.534;-3.036;2022-10-31T09:00:07;6.10;;;3.15;;
75718;SDS011;64340;48.534;-3.036;2022-10-31T09:02:34;4.68;;;3.15;;
75718;SDS011;64340;48.534;-3.036;2022-10-31T09:05:02;9.10;;;2.83;;
75718;SDS011;64340;48.534;-3.036;2022-10-31T09:07:28;5.25;;;2.60;;
75718;SDS011;64340;48.534;-3.036;2022-10-31T09:09:54;3.55;;;2.53;;
75718;SDS011;64340;48.534;-3.036;2022-10-31T09:12:21;4.55;;;2.00;;
75718;SDS011;64340;48.534;-3.036;2022-10-31T09:14:48;3.70;;;2.05;;
75718;SDS011;64340;48.534;-3.036;2022-10-31T09:17:15;5.30;;;1.88;;
75718;SDS011;64340;48.534;-3.036;2022-10-31T09:19:42;3.80;;;2.10;;
75718;SDS011;64340;48.534;-3.036;2022-10-31T09:22:10;3.65;;;2.00;;
75718;SDS011;64340;48.534;-3.036;2022-10-31T09:24:36;3.53;;;1.58;;
75718;SDS011;64340;48.534;-3.036;2022-10-31T09:27:03;4.05;;;1.70;;
75718;SDS011;64340;48.534;-3.036;2022-10-31T09:29:35;5.47;;;1.90;;
75718;SDS011;64340;48.534;-3.036;2022-10-31T09:32:04;4.82;;;1.60;;
75718;SDS011;64340;48.534;-3.036;2022-10-31T09:34:30;3.13;;;1.30;;
75718;SDS011;64340;48.534;-3.036;2022-10-31T09:37:00;5.30;;;1.80;;
75718;SDS011;64340;48.534;-3.036;2022-10-31T09:39:25;4.90;;;1.65;;
75718;SDS011;64340;48.534;-3.036;2022-10-31T09:44:43;4.07;;;1.27;;
75718;SDS011;64340;48.534;-3.036;2022-10-31T09:52:35;4.13;;;1.50;;
75718;SDS011;64340;48.534;-3.036;2022-10-31T09:55:09;4.03;;;1.73;;
75718;SDS011;64340;48.534;-3.036;2022-10-31T09:57:47;2.65;;;1.25;;
75718;SDS011;64340;48.534;-3.036;2022-10-31T10:00:17;1.95;;;1.00;;
75718;SDS011;64340;48.534;-3.036;2022-10-31T10:02:53;2.35;;;1.10;;
75718;SDS011;64340;48.534;-3.036;2022-10-31T10:05:27;4.53;;;1.10;;
75718;SDS011;64340;48.534;-3.036;2022-10-31T10:10:50;3.40;;;1.10;;
75718;SDS011;64340;48.534;-3.036;2022-10-31T10:30:07;4.35;;;1.30;;
75718;SDS011;64340;48.534;-3.036;2022-10-31T10:32:51;3.45;;;1.30;;
75718;SDS011;64340;48.534;-3.036;2022-10-31T10:35:30;5.00;;;1.35;;
75718;SDS011;64340;48.534;-3.036;2022-10-31T10:40:47;5.20;;;1.35;;
75718;SDS011;64340;48.534;-3.036;2022-10-31T10:43:22;3.22;;;1.55;;
75718;SDS011;64340;48.534;-3.036;2022-10-31T10:49:05;7.60;;;1.70;;
75718;SDS011;64340;48.534;-3.036;2022-10-31T10:54:38;5.90;;;2.00;;
75718;SDS011;64340;48.534;-3.036;2022-10-31T10:59:33;5.18;;;1.42;;
75718;SDS011;64340;48.534;-3.036;2022-10-31T11:02:00;4.15;;;1.20;;
75718;SDS011;64340;48.534;-3.036;2022-10-31T11:04:30;6.47;;;1.83;;
75718;SDS011;64340;48.534;-3.036;2022-10-31T11:07:02;6.65;;;1.73;;
75718;SDS011;64340;48.534;-3.036;2022-10-31T11:09:30;4.88;;;1.70;;
75718;SDS011;64340;48.534;-3.036;2022-10-31T11:11:56;5.03;;;1.60;;
75718;SDS011;64340;48.534;-3.036;2022-10-31T11:14:23;4.38;;;1.55;;
75718;SDS011;64340;48.534;-3.036;2022-10-31T11:16:53;4.82;;;1.60;;
75718;SDS011;64340;48.534;-3.036;2022-10-31T11:19:33;2.78;;;1.48;;
75718;SDS011;64340;48.534;-3.036;2022-10-31T11:22:07;4.80;;;1.65;;
75718;SDS011;64340;48.534;-3.036;2022-10-31T11:24:39;3.60;;;1.40;;
75718;SDS011;64340;48.534;-3.036;2022-10-31T11:27:24;6.22;;;2.13;;
75718;SDS011;64340;48.534;-3.036;2022-10-31T11:29:51;3.38;;;1.50;;
75718;SDS011;64340;48.534;-3.036;2022-10-31T11:32:21;3.88;;;1.80;;
75718;SDS011;64340;48.534;-3.036;2022-10-31T11:34:56;4.68;;;1.98;;
75718;SDS011;64340;48.534;-3.036;2022-10-31T11:37:27;4.07;;;1.98;;
75718;SDS011;64340;48.534;-3.036;2022-10-31T11:40:05;4.95;;;2.03;;
75718;SDS011;64340;48.534;-3.036;2022-10-31T11:42:36;3.95;;;2.00;;
75718;SDS011;64340;48.534;-3.036;2022-10-31T11:45:12;5.15;;;2.00;;
75718;SDS011;64340;48.534;-3.036;2022-10-31T11:47:49;4.65;;;1.73;;
75718;SDS011;64340;48.534;-3.036;2022-10-31T11:52:48;4.20;;;2.28;;
75718;SDS011;64340;48.534;-3.036;2022-10-31T11:55:17;4.45;;;2.30;;
75718;SDS011;64340;48.534;-3.036;2022-10-31T11:57:55;5.75;;;2.20;;
75718;SDS011;64340;48.534;-3.036;2022-10-31T12:03:04;6.20;;;2.78;;
75718;SDS011;64340;48.534;-3.036;2022-10-31T12:08:33;6.32;;;2.80;;
75718;SDS011;64340;48.534;-3.036;2022-10-31T12:14:01;6.63;;;2.80;;
75718;SDS011;64340;48.534;-3.036;2022-10-31T12:19:21;4.45;;;2.70;;
75718;SDS011;64340;48.534;-3.036;2022-10-31T12:24:40;4.93;;;2.83;;
75718;SDS011;64340;48.534;-3.036;2022-10-31T12:45:57;11.70;;;3.17;;
75718;SDS011;64340;48.534;-3.036;2022-10-31T12:59:44;5.53;;;2.78;;
75718;SDS011;64340;48.534;-3.036;2022-10-31T13:07:42;4.85;;;2.30;;
75718;SDS011;64340;48.534;-3.036;2022-10-31T13:16:25;4.70;;;2.83;;
75718;SDS011;64340;48.534;-3.036;2022-10-31T13:18:59;6.68;;;2.63;;
75718;SDS011;64340;48.534;-3.036;2022-10-31T13:21:42;4.03;;;2.30;;
75718;SDS011;64340;48.534;-3.036;2022-10-31T13:24:15;4.88;;;2.22;;
75718;SDS011;64340;48.534;-3.036;2022-10-31T13:29:21;5.72;;;2.40;;
75718;SDS011;64340;48.534;-3.036;2022-10-31T13:31:58;5.25;;;2.50;;
75718;SDS011;64340;48.534;-3.036;2022-10-31T13:34:30;5.60;;;2.42;;
75718;SDS011;64340;48.534;-3.036;2022-10-31T13:38:07;4.25;;;2.50;;
75718;SDS011;64340;48.534;-3.036;2022-10-31T13:42:43;3.70;;;2.38;;
75718;SDS011;64340;48.534;-3.036;2022-10-31T13:45:15;4.88;;;2.60;;
75718;SDS011;64340;48.534;-3.036;2022-10-31T13:47:54;5.60;;;2.78;;
75718;SDS011;64340;48.534;-3.036;2022-10-31T13:50:39;4.85;;;2.30;;
75718;SDS011;64340;48.534;-3.036;2022-10-31T13:55:44;5.50;;;2.92;;
75718;SDS011;64340;48.534;-3.036;2022-10-31T13:58:25;4.32;;;2.28;;
75718;SDS011;64340;48.534;-3.036;2022-10-31T14:01:11;5.70;;;2.72;;
75718;SDS011;64340;48.534;-3.036;2022-10-31T14:03:57;5.03;;;2.85;;
75718;SDS011;64340;48.534;-3.036;2022-10-31T14:06:43;4.50;;;3.05;;
75718;SDS011;64340;48.534;-3.036;2022-10-31T14:11:50;4.88;;;2.42;;
75718;SDS011;64340;48.534;-3.036;2022-10-31T14:14:17;3.75;;;2.60;;
75718;SDS011;64340;48.534;-3.036;2022-10-31T14:16:45;4.10;;;2.53;;
75718;SDS011;64340;48.534;-3.036;2022-10-31T14:19:22;4.75;;;2.83;;
75718;SDS011;64340;48.534;-3.036;2022-10-31T14:21:51;4.07;;;2.80;;
75718;SDS011;64340;48.534;-3.036;2022-10-31T14:27:00;3.63;;;2.92;;
75718;SDS011;64340;48.534;-3.036;2022-10-31T14:29:49;3.97;;;2.75;;
75718;SDS011;64340;48.534;-3.036;2022-10-31T14:32:20;3.88;;;2.67;;
75718;SDS011;64340;48.534;-3.036;2022-10-31T14:34:57;4.47;;;2.53;;
75718;SDS011;64340;48.534;-3.036;2022-10-31T14:37:32;5.20;;;2.53;;
75718;SDS011;64340;48.534;-3.036;2022-10-31T14:48:46;5.68;;;3.20;;
75718;SDS011;64340;48.534;-3.036;2022-10-31T14:51:41;5.35;;;2.55;;
75718;SDS011;64340;48.534;-3.036;2022-10-31T14:54:13;3.85;;;2.65;;
75718;SDS011;64340;48.534;-3.036;2022-10-31T14:56:46;3.40;;;2.50;;
75718;SDS011;64340;48.534;-3.036;2022-10-31T14:59:18;3.95;;;2.40;;
75718;SDS011;64340;48.534;-3.036;2022-10-31T15:01:58;3.70;;;2.45;;
75718;SDS011;64340;48.534;-3.036;2022-10-31T15:04:31;4.97;;;2.83;;
75718;SDS011;64340;48.534;-3.036;2022-10-31T15:12:27;4.88;;;2.35;;
75718;SDS011;64340;48.534;-3.036;2022-10-31T15:15:10;4.07;;;2.70;;
75718;SDS011;64340;48.534;-3.036;2022-10-31T15:17:43;4.75;;;2.80;;
75718;SDS011;64340;48.534;-3.036;2022-10-31T15:20:17;3.35;;;2.30;;
75718;SDS011;64340;48.534;-3.036;2022-10-31T15:22:45;4.65;;;2.40;;
75718;SDS011;64340;48.534;-3.036;2022-10-31T15:25:16;6.28;;;2.78;;
75718;SDS011;64340;48.534;-3.036;2022-10-31T15:27:44;6.85;;;2.90;;
75718;SDS011;64340;48.534;-3.036;2022-10-31T15:30:30;7.43;;;2.80;;
75718;SDS011;64340;48.534;-3.036;2022-10-31T15:32:56;5.13;;;2.53;;
75718;SDS011;64340;48.534;-3.036;2022-10-31T15:35:23;4.65;;;2.63;;
75718;SDS011;64340;48.534;-3.036;2022-10-31T15:37:54;6.30;;;2.55;;
75718;SDS011;64340;48.534;-3.036;2022-10-31T15:40:24;4.45;;;2.70;;
75718;SDS011;64340;48.534;-3.036;2022-10-31T15:42:53;4.28;;;2.50;;
75718;SDS011;64340;48.534;-3.036;2022-10-31T15:45:28;5.55;;;2.78;;
75718;SDS011;64340;48.534;-3.036;2022-10-31T15:47:59;7.00;;;2.60;;
75718;SDS011;64340;48.534;-3.036;2022-10-31T15:50:37;4.53;;;2.28;;
75718;SDS011;64340;48.534;-3.036;2022-10-31T15:53:06;6.05;;;2.88;;
75718;SDS011;64340;48.534;-3.036;2022-10-31T15:56:05;4.45;;;2.47;;
75718;SDS011;64340;48.534;-3.036;2022-10-31T15:58:47;3.97;;;2.05;;
75718;SDS011;64340;48.534;-3.036;2022-10-31T16:01:25;5.05;;;2.50;;
75718;SDS011;64340;48.534;-3.036;2022-10-31T16:04:34;5.13;;;2.50;;
75718;SDS011;64340;48.534;-3.036;2022-10-31T16:07:33;5.57;;;2.80;;
75718;SDS011;64340;48.534;-3.036;2022-10-31T16:09:48;3.60;;;2.30;;
75718;SDS011;64340;48.534;-3.036;2022-10-31T16:12:25;3.97;;;2.50;;
75718;SDS011;64340;48.534;-3.036;2022-10-31T16:15:13;5.00;;;2.70;;
75718;SDS011;64340;48.534;-3.036;2022-10-31T16:17:40;3.92;;;2.55;;
75718;SDS011;64340;48.534;-3.036;2022-10-31T16:20:20;3.67;;;2.40;;
75718;SDS011;64340;48.534;-3.036;2022-10-31T16:22:48;4.30;;;2.80;;
75718;SDS011;64340;48.534;-3.036;2022-10-31T16:25:17;4.40;;;2.70;;
75718;SDS011;64340;48.534;-3.036;2022-10-31T16:27:48;5.82;;;2.95;;
75718;SDS011;64340;48.534;-3.036;2022-10-31T16:33:03;4.82;;;2.50;;
75718;SDS011;64340;48.534;-3.036;2022-10-31T16:35:46;4.43;;;2.55;;
75718;SDS011;64340;48.534;-3.036;2022-10-31T16:38:13;4.72;;;2.70;;
75718;SDS011;64340;48.534;-3.036;2022-10-31T16:40:39;5.43;;;2.63;;
75718;SDS011;64340;48.534;-3.036;2022-10-31T16:43:05;5.80;;;2.78;;
75718;SDS011;64340;48.534;-3.036;2022-10-31T16:45:36;6.75;;;2.58;;
75718;SDS011;64340;48.534;-3.036;2022-10-31T16:48:11;6.15;;;2.88;;
75718;SDS011;64340;48.534;-3.036;2022-10-31T16:50:39;4.55;;;2.55;;
75718;SDS011;64340;48.534;-3.036;2022-10-31T16:53:06;7.18;;;2.85;;
75718;SDS011;64340;48.534;-3.036;2022-10-31T16:55:33;5.00;;;2.67;;
75718;SDS011;64340;48.534;-3.036;2022-10-31T16:58:00;5.47;;;2.72;;
75718;SDS011;64340;48.534;-3.036;2022-10-31T17:00:27;5.13;;;2.78;;
75718;SDS011;64340;48.534;-3.036;2022-10-31T17:02:54;6.93;;;2.78;;
75718;SDS011;64340;48.534;-3.036;2022-10-31T17:05:21;8.73;;;3.17;;
75718;SDS011;64340;48.534;-3.036;2022-10-31T17:07:56;4.93;;;2.60;;
75718;SDS011;64340;48.534;-3.036;2022-10-31T17:10:22;6.15;;;2.55;;
75718;SDS011;64340;48.534;-3.036;2022-10-31T17:12:48;5.15;;;2.70;;
75718;SDS011;64340;48.534;-3.036;2022-10-31T17:15:19;5.00;;;2.55;;
75718;SDS011;64340;48.534;-3.036;2022-10-31T17:17:50;5.07;;;2.67;;
75718;SDS011;64340;48.534;-3.036;2022-10-31T17:20:18;5.72;;;2.92;;
75718;SDS011;64340;48.534;-3.036;2022-10-31T17:22:49;4.85;;;2.70;;
75718;SDS011;64340;48.534;-3.036;2022-10-31T17:25:16;5.97;;;2.65;;
75718;SDS011;64340;48.534;-3.036;2022-10-31T17:27:47;4.95;;;2.58;;
75718;SDS011;64340;48.534;-3.036;2022-10-31T17:30:13;5.18;;;2.38;;
75718;SDS011;64340;48.534;-3.036;2022-10-31T17:32:40;5.28;;;2.90;;
75718;SDS011;64340;48.534;-3.036;2022-10-31T17:35:07;4.20;;;2.50;;
75718;SDS011;64340;48.534;-3.036;2022-10-31T17:37:34;4.53;;;2.55;;
75718;SDS011;64340;48.534;-3.036;2022-10-31T17:40:00;3.88;;;2.47;;
75718;SDS011;64340;48.534;-3.036;2022-10-31T17:42:26;3.97;;;2.50;;